Time;durP1;ratioP1;P1;durP2;ratioP2;P2;SDS_P1;SDS_P2;PMS_P1;PMS_P2;Temp;Humidity;BMP_temperature;BMP_pressure;BME280_temperature;BME280_humidity;BME280_pressure;Samples;Min_cycle;Max_cycle;Signal;HPM_P1;HPM_P2
2022/09/28 00:01:21;;;;;;;3.20;1.00;;;8.90;99.90;;;8.07;100.00;95956.78;6203864;23;20028;-75
2022/09/28 00:03:51;;;;;;;4.47;0.80;;;8.90;99.90;;;8.02;100.00;95949.28;6204278;23;20119;-75
2022/09/28 00:06:23;;;;;;;3.58;0.70;;;8.90;99.90;;;8.12;100.00;95931.53;6205230;23;20672;-75
2022/09/28 00:08:50;;;;;;;3.13;0.52;;;8.90;99.90;;;8.07;100.00;95936.94;6213602;23;20044;-74
2022/09/28 00:11:19;;;;;;;2.65;0.70;;;8.90;99.90;;;8.12;100.00;95923.75;6204698;23;20025;-75
2022/09/28 00:13:52;;;;;;;2.00;0.52;;;8.90;99.90;;;8.11;100.00;95917.75;6206899;23;20091;-75
2022/09/28 00:16:24;;;;;;;2.20;0.60;;;8.90;99.90;;;8.10;100.00;95908.34;6204906;23;20464;-75
2022/09/28 00:18:52;;;;;;;2.05;0.50;;;8.90;99.90;;;8.10;100.00;95904.94;6207210;23;20024;-75
2022/09/28 00:21:23;;;;;;;1.45;0.70;;;8.90;99.90;;;8.07;100.00;95911.09;6180825;23;20028;-74
2022/09/28 00:24:16;;;;;;;4.70;0.75;;;8.90;99.90;;;8.01;100.00;95900.31;6204586;23;20043;-75
2022/09/28 00:26:52;;;;;;;1.02;0.52;;;8.90;99.90;;;7.97;100.00;95897.88;6184086;23;20032;-74
2022/09/28 00:29:34;;;;;;;2.25;0.47;;;8.80;99.90;;;7.99;100.00;95905.56;6205415;23;20031;-74
2022/09/28 00:32:23;;;;;;;2.35;0.68;;;8.80;99.90;;;8.01;100.00;95895.16;6206183;23;20472;-75
2022/09/28 00:34:51;;;;;;;2.83;0.55;;;8.80;99.90;;;8.02;100.00;95895.03;6206244;23;20021;-74
2022/09/28 00:37:18;;;;;;;2.90;0.68;;;8.80;99.90;;;7.95;100.00;95891.97;6206126;23;20023;-74
2022/09/28 00:39:48;;;;;;;1.50;0.47;;;8.80;99.90;;;7.90;100.00;95880.28;6206658;23;20047;-74
2022/09/28 00:42:22;;;;;;;2.38;0.60;;;8.70;99.90;;;7.81;100.00;95884.22;6205315;23;20028;-75
2022/09/28 00:44:50;;;;;;;1.25;0.40;;;8.70;99.90;;;7.88;100.00;95864.03;6204983;23;20031;-74
2022/09/28 00:47:33;;;;;;;1.17;0.40;;;8.70;99.90;;;7.85;100.00;95872.78;6207821;23;20028;-73
2022/09/28 00:50:33;;;;;;;2.20;0.47;;;8.60;99.90;;;7.82;100.00;95885.03;6205615;23;20566;-75
2022/09/28 00:53:13;;;;;;;2.22;0.60;;;8.60;99.90;;;7.75;100.00;95877.69;6208159;23;20680;-74
2022/09/28 00:55:57;;;;;;;0.85;0.30;;;8.60;99.90;;;7.73;100.00;95864.03;6205129;23;20020;-75
2022/09/28 00:58:29;;;;;;;1.98;0.45;;;8.60;99.90;;;7.68;100.00;95866.00;6205739;23;20032;-73
2022/09/28 01:00:57;;;;;;;1.80;0.45;;;8.60;99.90;;;7.83;100.00;95859.13;6205461;23;20024;-73
2022/09/28 01:03:25;;;;;;;1.88;0.47;;;8.60;99.90;;;7.74;100.00;95864.84;6204814;23;20025;-74
2022/09/28 01:05:55;;;;;;;2.28;0.50;;;8.60;99.90;;;7.72;100.00;95870.09;6205470;23;20882;-74
2022/09/28 01:08:26;;;;;;;1.00;0.40;;;8.50;99.90;;;7.68;100.00;95875.53;6205956;23;20031;-74
2022/09/28 01:10:53;;;;;;;2.55;0.60;;;8.60;99.90;;;7.75;100.00;95866.50;6203735;23;20444;-74
2022/09/28 01:13:22;;;;;;;2.45;0.60;;;8.60;99.90;;;7.80;100.00;95861.91;6207321;23;20031;-74
2022/09/28 01:16:23;;;;;;;4.35;0.70;;;8.60;99.90;;;7.85;100.00;95853.88;6204693;23;20025;-74
2022/09/28 01:19:07;;;;;;;3.08;0.68;;;8.60;99.90;;;7.74;100.00;95852.75;6206856;23;20025;-73
2022/09/28 01:21:52;;;;;;;1.95;0.50;;;8.60;99.90;;;7.78;100.00;95863.75;6204884;23;20336;-73
2022/09/28 01:24:30;;;;;;;4.75;0.82;;;8.60;99.90;;;7.84;100.00;95854.78;6203612;23;20029;-74
2022/09/28 01:27:21;;;;;;;3.55;0.70;;;8.60;99.90;;;7.84;100.00;95847.03;6206446;23;20024;-73
2022/09/28 01:29:59;;;;;;;2.45;0.88;;;8.60;99.90;;;7.84;100.00;95852.22;6206778;23;20600;-74
2022/09/28 01:33:01;;;;;;;3.53;0.90;;;8.60;99.90;;;7.84;100.00;95854.78;6203754;23;20464;-74
2022/09/28 01:35:44;;;;;;;3.83;1.00;;;8.60;99.90;;;7.84;100.00;95844.47;6204465;23;20035;-74
2022/09/28 01:38:22;;;;;;;4.82;1.30;;;8.70;99.90;;;7.79;100.00;95847.31;6205725;23;20020;-75
2022/09/28 01:40:51;;;;;;;5.25;1.10;;;8.70;99.90;;;7.84;100.00;95834.13;6204109;23;20021;-75
2022/09/28 01:43:29;;;;;;;4.82;1.40;;;8.60;99.90;;;7.83;100.00;95832.47;6215089;23;20097;-74
2022/09/28 01:46:01;;;;;;;3.47;1.25;;;8.70;99.90;;;7.83;100.00;95827.31;6201103;23;20021;-74
2022/09/28 01:48:56;;;;;;;7.15;2.20;;;8.70;99.90;;;7.81;100.00;95822.22;6205819;23;20457;-74
2022/09/28 01:51:42;;;;;;;4.18;1.30;;;8.70;99.90;;;7.86;100.00;95819.38;6178053;23;20021;-74
2022/09/28 01:54:13;;;;;;;3.30;1.20;;;8.60;99.90;;;7.84;100.00;95816.88;6205394;23;20731;-72
2022/09/28 01:56:54;;;;;;;4.75;1.92;;;8.60;99.90;;;7.86;100.00;95809.84;6204208;23;20055;-73
2022/09/28 01:59:27;;;;;;;5.78;1.80;;;8.70;99.90;;;7.84;100.00;95819.44;6204074;23;20048;-73
2022/09/28 02:02:02;;;;;;;6.15;1.80;;;8.70;99.90;;;7.87;100.00;95810.72;6203782;23;20035;-73
2022/09/28 02:04:50;;;;;;;6.88;1.90;;;8.70;99.90;;;7.94;100.00;95809.41;6205209;23;20059;-73
2022/09/28 02:07:26;;;;;;;7.28;2.00;;;8.70;99.90;;;7.91;100.00;95805.28;6204475;23;20040;-73
2022/09/28 02:09:59;;;;;;;7.53;2.47;;;8.70;99.90;;;7.84;100.00;95809.13;6206299;23;20119;-73
2022/09/28 02:12:45;;;;;;;6.20;2.42;;;8.70;99.90;;;7.87;100.00;95801.22;6205016;23;20035;-73
2022/09/28 02:15:26;;;;;;;5.30;2.20;;;8.70;99.90;;;7.89;100.00;95814.00;6204196;23;20479;-73
2022/09/28 02:17:54;;;;;;;9.32;1.92;;;8.70;99.90;;;7.89;100.00;95806.25;6203848;23;20441;-73
2022/09/28 02:20:22;;;;;;;6.60;2.08;;;8.70;99.90;;;7.93;100.00;95800.81;6207292;23;20032;-74
2022/09/28 02:22:54;;;;;;;5.25;2.03;;;8.70;99.90;;;7.89;100.00;95795.94;6203237;23;20032;-73
2022/09/28 02:25:48;;;;;;;7.18;1.95;;;8.70;99.90;;;7.86;100.00;95799.53;6204265;23;20020;-73
2022/09/28 02:28:15;;;;;;;9.88;2.30;;;8.70;99.90;;;7.82;100.00;95786.88;6204516;23;20107;-73
2022/09/28 02:30:43;;;;;;;6.95;2.55;;;8.80;99.90;;;7.85;100.00;95782.38;6204536;23;20031;-75
2022/09/28 02:33:30;;;;;;;5.45;2.00;;;8.70;99.90;;;7.83;100.00;95784.22;6203839;23;20025;-74
2022/09/28 02:35:59;;;;;;;9.80;2.45;;;8.70;99.90;;;7.84;100.00;95778.13;6203101;23;20029;-74
2022/09/28 02:38:25;;;;;;;5.80;2.30;;;8.70;99.90;;;7.78;100.00;95788.00;6180343;23;20031;-73
2022/09/28 02:41:06;;;;;;;7.93;2.88;;;8.80;99.90;;;7.93;100.00;95784.50;6203761;23;20475;-75
2022/09/28 02:44:18;;;;;;;8.35;2.58;;;8.70;99.90;;;7.91;100.00;95787.19;6203660;23;20024;-73
2022/09/28 02:46:54;;;;;;;5.43;2.58;;;8.70;99.90;;;7.92;100.00;95788.00;6177982;23;20077;-74
2022/09/28 02:49:36;;;;;;;9.38;3.03;;;8.80;99.90;;;7.86;100.00;95773.69;6205338;23;20784;-74
2022/09/28 02:52:27;;;;;;;11.55;2.45;;;8.80;99.90;;;7.98;100.00;95777.28;6204021;23;20021;-74
2022/09/28 02:55:25;;;;;;;6.80;2.80;;;8.80;99.90;;;7.90;100.00;95774.34;6216066;23;20631;-73
2022/09/28 02:58:17;;;;;;;9.38;2.75;;;8.80;99.90;;;7.89;100.00;95777.84;6201733;23;20028;-73
2022/09/28 03:00:53;;;;;;;10.27;3.15;;;8.80;99.90;;;7.91;100.00;95784.59;6198307;23;20016;-74
2022/09/28 03:03:40;;;;;;;9.25;2.83;;;8.80;99.90;;;7.83;100.00;95783.41;6205064;23;20162;-74
2022/09/28 03:06:25;;;;;;;7.93;3.13;;;8.80;99.90;;;8.02;100.00;95777.94;6203855;23;20472;-74
2022/09/28 03:09:30;;;;;;;10.07;2.72;;;8.80;99.90;;;7.99;100.00;95770.38;6203302;23;20505;-73
2022/09/28 03:12:04;;;;;;;6.63;2.47;;;8.80;99.90;;;8.08;100.00;95765.47;6172357;23;20024;-73
2022/09/28 03:14:31;;;;;;;6.68;3.10;;;8.80;99.90;;;8.02;100.00;95762.44;6202527;23;20024;-74
2022/09/28 03:16:58;;;;;;;8.25;3.17;;;8.80;99.90;;;7.90;100.00;95758.84;6202289;23;20021;-73
2022/09/28 03:19:31;;;;;;;6.65;2.20;;;8.90;99.90;;;7.96;100.00;95761.06;6206611;23;20025;-75
2022/09/28 03:21:59;;;;;;;8.35;2.40;;;8.90;99.90;;;7.96;100.00;95763.66;6204103;23;20039;-74
2022/09/28 03:24:26;;;;;;;8.05;2.28;;;8.90;99.90;;;8.02;100.00;95765.84;6204802;23;20452;-73
2022/09/28 03:26:53;;;;;;;9.07;2.42;;;8.90;99.90;;;8.01;100.00;95771.94;6204721;23;20110;-74
2022/09/28 03:29:19;;;;;;;7.28;2.28;;;8.90;99.90;;;8.04;100.00;95753.66;6201691;23;20021;-73
2022/09/28 03:31:47;;;;;;;7.53;2.58;;;8.90;99.90;;;8.07;100.00;95750.88;6204262;23;20024;-74
2022/09/28 03:34:15;;;;;;;8.27;2.80;;;8.90;99.90;;;8.12;100.00;95754.03;6214344;23;20086;-74
2022/09/28 03:36:41;;;;;;;6.50;2.20;;;9.00;99.90;;;8.18;100.00;95750.22;6205689;23;20029;-73
2022/09/28 03:39:08;;;;;;;7.03;2.60;;;8.90;99.90;;;8.10;100.00;95749.88;6203410;23;20081;-73
2022/09/28 03:41:35;;;;;;;7.35;2.25;;;9.00;99.90;;;8.02;100.00;95758.09;6205072;23;20183;-74
2022/09/28 03:44:03;;;;;;;7.43;2.13;;;9.00;99.90;;;7.94;100.00;95755.16;6203305;23;20431;-74
2022/09/28 03:46:30;;;;;;;11.60;2.90;;;9.00;99.90;;;7.95;100.00;95760.22;6202986;23;20031;-74
2022/09/28 03:48:59;;;;;;;8.95;2.50;;;9.00;99.90;;;8.04;100.00;95748.50;6205093;23;20024;-74
2022/09/28 03:51:26;;;;;;;8.15;2.55;;;8.90;99.90;;;7.88;100.00;95751.19;6205968;23;20020;-73
2022/09/28 03:53:53;;;;;;;11.50;2.95;;;8.90;99.90;;;7.78;100.00;95752.69;6202971;23;20467;-74
2022/09/28 03:56:20;;;;;;;10.77;2.75;;;8.90;99.90;;;7.83;100.00;95742.91;6204372;23;20032;-74
2022/09/28 03:58:47;;;;;;;9.13;2.40;;;8.90;99.90;;;7.86;100.00;95741.88;6206333;23;20094;-74
2022/09/28 04:01:14;;;;;;;6.20;3.13;;;8.80;99.90;;;7.87;100.00;95736.63;6204946;23;20027;-74
2022/09/28 04:03:44;;;;;;;7.75;2.78;;;8.70;99.90;;;7.78;100.00;95737.19;6205625;23;20048;-73
2022/09/28 04:06:11;;;;;;;7.70;2.25;;;8.70;99.90;;;7.86;100.00;95742.69;6203024;23;20029;-75
2022/09/28 04:08:39;;;;;;;11.50;2.80;;;8.60;99.90;;;7.78;100.00;95749.25;6204872;23;20067;-73
2022/09/28 04:11:05;;;;;;;10.73;2.80;;;8.60;99.90;;;7.73;100.00;95750.38;6215413;23;20017;-73
2022/09/28 04:13:32;;;;;;;12.35;2.65;;;8.60;99.90;;;7.73;100.00;95744.38;6204342;23;20047;-73
2022/09/28 04:16:00;;;;;;;7.30;2.15;;;8.60;99.90;;;7.74;100.00;95744.28;6202508;23;20024;-74
2022/09/28 04:18:28;;;;;;;8.70;2.47;;;8.50;99.90;;;7.65;100.00;95734.50;6204374;23;20028;-73
2022/09/28 04:21:09;;;;;;;5.32;2.00;;;8.50;99.90;;;7.73;100.00;95737.47;6204680;23;20039;-73
2022/09/28 04:23:38;;;;;;;7.57;2.13;;;8.50;99.90;;;7.77;100.00;95743.25;6204761;23;20028;-73
2022/09/28 04:26:16;;;;;;;11.52;3.05;;;8.40;99.90;;;7.73;100.00;95744.38;6228480;23;20025;-73
2022/09/28 04:31:48;;;;;;;11.30;2.55;;;8.50;99.90;;;7.77;100.00;95742.44;6203989;23;20352;-74
2022/09/28 04:34:21;;;;;;;7.22;2.60;;;8.50;99.90;;;7.71;100.00;95751.41;6206259;23;20021;-73
2022/09/28 04:36:48;;;;;;;8.55;2.67;;;8.50;99.90;;;7.78;100.00;95733.75;6214087;23;20028;-74
2022/09/28 04:39:18;;;;;;;8.07;2.10;;;8.50;99.90;;;7.81;100.00;95739.56;6207194;23;20032;-73
2022/09/28 04:41:47;;;;;;;10.43;2.35;;;8.50;99.90;;;7.68;100.00;95743.81;6202509;23;20047;-74
2022/09/28 04:44:14;;;;;;;7.35;2.20;;;8.50;99.90;;;7.62;100.00;95742.44;6202504;23;20025;-74
2022/09/28 04:46:41;;;;;;;9.85;2.17;;;8.50;99.90;;;7.64;100.00;95740.63;6205257;23;20031;-74
2022/09/28 04:49:09;;;;;;;7.85;2.15;;;8.40;99.90;;;7.57;100.00;95743.63;6207098;23;20046;-74
2022/09/28 04:51:36;;;;;;;8.77;2.80;;;8.40;99.90;;;7.49;100.00;95744.09;6207749;23;20112;-73
2022/09/28 04:54:03;;;;;;;7.55;2.30;;;8.30;99.90;;;7.56;100.00;95732.47;6207201;23;20021;-72
2022/09/28 04:56:30;;;;;;;8.63;2.03;;;8.30;99.90;;;7.49;100.00;95732.03;6206741;23;20028;-73
2022/09/28 04:58:57;;;;;;;9.60;2.25;;;8.20;99.90;;;7.51;100.00;95729.34;6200601;23;20027;-73
2022/09/28 05:01:24;;;;;;;10.82;2.95;;;8.20;99.90;;;7.43;100.00;95732.38;6202508;23;20024;-74
2022/09/28 05:03:51;;;;;;;7.78;2.35;;;8.20;99.90;;;7.39;100.00;95736.09;6206675;23;20095;-74
2022/09/28 05:06:18;;;;;;;5.97;1.98;;;8.10;99.90;;;7.37;100.00;95737.91;6204947;23;20472;-73
2022/09/28 05:08:45;;;;;;;6.43;2.35;;;8.10;99.90;;;7.27;100.00;95742.78;6206194;23;20522;-72
2022/09/28 05:11:13;;;;;;;8.25;2.88;;;8.10;99.90;;;7.29;100.00;95753.00;6198815;23;20520;-73
2022/09/28 05:13:44;;;;;;;6.68;2.33;;;8.10;99.90;;;7.27;100.00;95753.09;6207125;23;20325;-74
2022/09/28 05:16:14;;;;;;;12.45;3.28;;;8.10;99.90;;;7.29;100.00;95751.25;6204658;23;20750;-74
2022/09/28 05:18:42;;;;;;;9.48;3.05;;;8.00;99.90;;;7.22;100.00;95751.72;6201029;23;20024;-73
2022/09/28 05:21:11;;;;;;;6.53;2.85;;;8.00;99.90;;;7.24;100.00;95749.88;6204102;23;20028;-74
2022/09/28 05:23:40;;;;;;;10.43;2.95;;;8.00;99.90;;;7.34;100.00;95748.41;6203798;23;20024;-73
2022/09/28 05:26:07;;;;;;;10.70;3.15;;;8.10;99.90;;;7.38;100.00;95754.22;6213479;23;20031;-73
2022/09/28 05:28:34;;;;;;;10.32;2.58;;;8.10;99.90;;;7.37;100.00;95745.66;6203490;23;20021;-73
2022/09/28 05:31:03;;;;;;;8.02;2.65;;;8.20;99.90;;;7.37;100.00;95753.41;6202878;23;20574;-75
2022/09/28 05:33:31;;;;;;;9.27;2.38;;;8.20;99.90;;;7.46;100.00;95765.78;6204342;23;20444;-73
2022/09/28 05:35:58;;;;;;;14.57;3.70;;;8.20;99.90;;;7.37;100.00;95766.31;6206121;23;20099;-74
2022/09/28 05:38:28;;;;;;;10.50;2.42;;;8.30;99.90;;;7.52;100.00;95767.16;6204867;23;20020;-73
2022/09/28 05:40:56;;;;;;;8.48;2.90;;;8.40;99.90;;;7.54;100.00;95770.47;6205861;23;20102;-74
2022/09/28 05:43:23;;;;;;;11.00;3.22;;;8.40;99.90;;;7.59;100.00;95765.84;6205622;23;20052;-73
2022/09/28 05:45:50;;;;;;;6.90;2.83;;;8.40;99.90;;;7.72;100.00;95774.53;6207617;23;20025;-73
2022/09/28 05:48:22;;;;;;;11.80;3.33;;;8.50;99.90;;;7.65;100.00;95775.00;6208797;23;20124;-73
2022/09/28 05:50:52;;;;;;;9.85;3.40;;;8.50;99.90;;;7.74;100.00;95774.44;6205723;23;20368;-73
2022/09/28 05:53:19;;;;;;;16.58;3.78;;;8.60;99.90;;;7.82;100.00;95772.22;6206834;23;20025;-74
2022/09/28 05:55:47;;;;;;;9.93;3.97;;;8.70;99.90;;;7.78;100.00;95770.75;6204194;23;20017;-74
2022/09/28 05:58:14;;;;;;;8.93;2.55;;;8.70;99.90;;;7.67;100.00;95768.00;6203104;23;20026;-74
2022/09/28 06:00:42;;;;;;;8.95;3.50;;;8.70;99.90;;;7.65;100.00;95757.75;6205113;23;20033;-74
2022/09/28 06:03:13;;;;;;;5.65;2.38;;;8.80;99.90;;;7.78;100.00;95765.59;6205340;23;20035;-74
2022/09/28 06:05:40;;;;;;;7.63;2.72;;;8.70;99.90;;;7.54;100.00;95763.53;6204146;23;20020;-73
2022/09/28 06:08:11;;;;;;;9.55;2.95;;;8.70;99.90;;;7.57;100.00;95767.69;6205024;23;20024;-74
2022/09/28 06:10:39;;;;;;;7.82;3.10;;;8.70;99.90;;;7.65;100.00;95762.91;6204815;23;20021;-73
2022/09/28 06:13:07;;;;;;;10.88;3.30;;;8.70;99.90;;;7.67;100.00;95758.50;6205124;23;20032;-73
2022/09/28 06:15:35;;;;;;;10.13;2.80;;;8.70;99.90;;;7.66;100.00;95756.00;6204924;23;20047;-73
2022/09/28 06:18:06;;;;;;;8.82;2.50;;;8.60;99.90;;;7.64;100.00;95755.25;6206679;23;20035;-73
2022/09/28 06:20:36;;;;;;;8.20;2.67;;;8.50;99.90;;;7.50;100.00;95766.41;6179889;23;20036;-73
2022/09/28 06:23:03;;;;;;;6.97;2.63;;;8.40;99.90;;;7.53;100.00;95764.47;6202925;23;20034;-74
2022/09/28 06:25:31;;;;;;;7.68;2.85;;;8.40;99.90;;;7.68;100.00;95773.06;6214775;23;20044;-74
2022/09/28 06:28:14;;;;;;;7.35;2.30;;;8.50;99.90;;;7.81;100.00;95770.56;6203755;23;20032;-74
2022/09/28 06:30:42;;;;;;;;;;;8.50;99.90;;;7.69;100.00;95764.41;6204799;23;20025;-73
2022/09/28 06:33:12;;;;;;;8.02;2.42;;;8.60;99.90;;;7.71;100.00;95762.56;6180352;23;19920;-72
2022/09/28 06:35:39;;;;;;;7.13;2.30;;;8.60;99.90;;;7.78;100.00;95759.59;6204219;23;20031;-73
2022/09/28 06:38:06;;;;;;;6.93;2.47;;;8.60;99.90;;;7.78;100.00;95770.75;6205965;23;20021;-73
2022/09/28 06:40:34;;;;;;;8.43;2.47;;;8.60;99.90;;;7.70;100.00;95766.03;6206242;23;20031;-73
2022/09/28 06:43:11;;;;;;;7.13;3.03;;;8.60;99.90;;;7.85;100.00;95766.88;6204851;23;20025;-73
2022/09/28 06:45:38;;;;;;;9.27;2.13;;;8.70;99.90;;;7.80;100.00;95757.75;6204158;23;20016;-74
2022/09/28 06:48:05;;;;;;;5.88;2.45;;;8.80;99.90;;;7.80;100.00;95750.84;6205200;23;20020;-72
2022/09/28 06:50:36;;;;;;;9.13;2.20;;;8.80;99.90;;;7.81;100.00;95757.66;6202941;23;20024;-73
2022/09/28 06:53:05;;;;;;;8.70;3.40;;;8.90;99.90;;;7.82;100.00;95758.47;6204321;23;20055;-74
2022/09/28 06:55:32;;;;;;;7.90;2.72;;;9.00;99.90;;;8.13;100.00;95754.84;6203701;23;20067;-73
2022/09/28 06:58:06;;;;;;;5.55;2.17;;;9.10;99.90;;;8.27;100.00;95751.41;6202777;23;20024;-74
2022/09/28 07:00:35;;;;;;;8.27;2.47;;;9.20;99.90;;;8.15;100.00;95758.19;6203773;23;20739;-71
2022/09/28 07:03:10;;;;;;;10.18;2.90;;;9.30;99.90;;;7.99;100.00;95766.03;6204514;23;20025;-73
2022/09/28 07:05:43;;;;;;;6.82;2.38;;;9.30;99.90;;;8.02;100.00;95752.94;6203952;23;20082;-72
2022/09/28 07:08:10;;;;;;;7.15;2.08;;;9.30;99.90;;;8.07;100.00;95761.22;6203500;23;20112;-73
2022/09/28 07:10:48;;;;;;;8.00;2.78;;;9.30;99.90;;;8.16;100.00;95771.00;6204321;23;20023;-72
2022/09/28 07:13:16;;;;;;;6.40;2.70;;;9.40;99.90;;;8.10;100.00;95761.03;6204444;23;20430;-74
2022/09/28 07:16:03;;;;;;;6.32;2.75;;;9.40;99.90;;;8.23;100.00;95758.50;6204796;23;20104;-73
2022/09/28 07:18:30;;;;;;;7.82;2.67;;;9.40;99.90;;;8.31;100.00;95758.06;6230255;23;20031;-73
2022/09/28 07:20:58;;;;;;;6.55;2.38;;;9.40;99.90;;;8.46;100.00;95759.72;6204508;23;20127;-73
2022/09/28 07:23:27;;;;;;;9.20;2.75;;;9.40;99.90;;;8.40;100.00;95760.09;6203698;23;20028;-72
2022/09/28 07:25:54;;;;;;;5.10;2.20;;;9.40;99.90;;;8.44;100.00;95758.97;6203402;23;20025;-71
2022/09/28 07:28:21;;;;;;;9.52;3.33;;;9.40;99.90;;;8.41;100.00;95764.31;6203495;23;20665;-73
2022/09/28 07:30:48;;;;;;;6.82;2.20;;;9.50;99.90;;;8.48;100.00;95765.59;6202878;23;20075;-73
2022/09/28 07:33:16;;;;;;;8.73;2.53;;;9.70;99.90;;;8.56;100.00;95760.78;6205904;23;20596;-72
2022/09/28 07:35:54;;;;;;;7.53;2.75;;;9.90;99.90;;;8.93;100.00;95755.81;6204757;23;20123;-72
2022/09/28 07:38:21;;;;;;;7.18;2.63;;;10.20;99.90;;;8.65;100.00;95759.38;6204374;23;20100;-73
2022/09/28 07:43:34;;;;;;;11.52;2.65;;;10.80;99.90;;;9.10;100.00;95746.09;6203108;23;20107;-73
2022/09/28 07:46:01;;;;;;;6.90;2.50;;;10.90;99.90;;;9.41;100.00;95732.78;6202018;23;20308;-73
2022/09/28 07:48:36;;;;;;;10.93;2.28;;;11.10;99.90;;;9.88;100.00;95735.66;6202629;23;20032;-74
2022/09/28 07:51:03;;;;;;;8.80;1.83;;;11.50;99.90;;;10.55;100.00;95724.09;6203230;23;20031;-73
2022/09/28 07:53:30;;;;;;;4.80;1.80;;;12.00;99.90;;;10.62;100.00;95720.91;6203115;23;20130;-73
2022/09/28 07:56:08;;;;;;;7.63;2.08;;;12.40;99.90;;;11.03;100.00;95709.28;6207706;23;20450;-73
2022/09/28 07:58:37;;;;;;;6.43;2.00;;;12.80;99.90;;;11.49;100.00;95705.00;6229449;23;20464;-74
2022/09/28 08:01:10;;;;;;;6.95;1.95;;;13.00;99.90;;;10.66;100.00;95709.38;6216144;23;20040;-72
2022/09/28 08:03:38;;;;;;;6.88;1.73;;;13.00;99.90;;;10.35;100.00;95715.13;6208004;23;20104;-73
2022/09/28 08:06:08;;;;;;;7.53;2.20;;;12.50;99.90;;;9.58;100.00;95728.25;6206207;23;20020;-73
2022/09/28 08:08:36;;;;;;;5.70;1.55;;;11.90;99.90;;;10.44;100.00;95717.06;6208112;23;20042;-73
2022/09/28 08:11:06;;;;;;;8.88;2.60;;;11.90;99.90;;;9.29;100.00;95735.38;6205456;23;20069;-73
2022/09/28 08:13:32;;;;;;;5.78;1.70;;;11.70;99.90;;;9.66;100.00;95738.88;6205885;23;20025;-73
2022/09/28 08:16:02;;;;;;;5.82;1.92;;;11.70;99.90;;;9.44;100.00;95742.09;6206802;23;20020;-73
2022/09/28 08:18:30;;;;;;;6.25;1.70;;;11.60;99.90;;;9.99;100.00;95745.25;6205941;23;20024;-73
2022/09/28 08:23:42;;;;;;;8.60;2.20;;;11.90;99.90;;;10.67;100.00;95738.75;6207531;23;20024;-73
2022/09/28 08:26:09;;;;;;;9.50;1.83;;;12.30;99.90;;;10.22;100.00;95748.88;6204743;23;20025;-73
2022/09/28 08:28:43;;;;;;;7.78;1.38;;;12.20;99.90;;;9.66;100.00;95738.88;6205010;23;20116;-74
2022/09/28 08:31:10;;;;;;;11.70;1.70;;;11.70;99.90;;;9.80;100.00;95732.75;6204769;23;20347;-73
2022/09/28 08:33:37;;;;;;;6.72;1.85;;;11.50;99.90;;;9.13;100.00;95751.09;6204865;23;20067;-72
2022/09/28 08:36:05;;;;;;;7.97;2.67;;;11.20;99.90;;;9.26;100.00;95751.94;6207269;23;20017;-74
2022/09/28 08:38:32;;;;;;;9.30;2.30;;;11.10;99.90;;;9.57;100.00;95760.25;6207334;23;20460;-74
2022/09/28 08:41:34;;;;;;;8.00;1.95;;;11.30;99.90;;;10.43;100.00;95757.75;6204483;23;20127;-73
2022/09/28 08:44:24;;;;;;;8.13;1.88;;;11.50;99.90;;;10.01;100.00;95772.75;6206222;23;20028;-73
2022/09/28 08:48:42;;;;;;;7.95;1.63;;;12.20;99.90;;;10.87;100.00;95761.50;6204338;23;20091;-73
2022/09/28 08:50:06;;;;;;;6.05;1.58;;;12.70;99.90;;;11.55;100.00;95758.28;6215052;23;20033;-73
2022/09/28 08:52:38;;;;;;;5.75;1.63;;;13.00;99.90;;;11.66;100.00;95761.72;6205953;23;20468;-74
2022/09/28 08:55:31;;;;;;;14.80;6.45;;;13.50;99.90;;;10.09;100.00;95779.19;6204124;23;20032;-73
2022/09/28 08:58:19;;;;;;;13.20;6.78;;;13.20;99.90;;;10.25;100.00;95772.81;6205875;23;20095;-73
2022/09/28 09:00:50;;;;;;;10.30;5.63;;;12.50;99.90;;;10.66;100.00;95778.63;6204359;23;20024;-73
2022/09/28 09:03:28;;;;;;;9.38;4.03;;;12.30;99.90;;;10.95;100.00;95773.06;6205288;23;20093;-74
2022/09/28 09:06:14;;;;;;;7.30;2.67;;;12.80;99.90;;;12.10;100.00;95775.69;6202540;23;20054;-74
2022/09/28 09:09:38;;;;;;;9.85;4.65;;;13.50;99.90;;;13.49;100.00;95765.47;6204872;23;20086;-73
2022/09/28 09:12:25;;;;;;;4.38;1.95;;;14.60;99.90;;;14.06;100.00;95759.88;6204895;23;20047;-74
2022/09/28 09:15:30;;;;;;;4.50;0.98;;;15.00;99.90;;;13.07;100.00;95773.25;6205656;23;20443;-74
2022/09/28 09:18:09;;;;;;;15.85;8.82;;;15.00;99.90;;;11.38;100.00;95793.28;6228802;23;20099;-72
2022/09/28 09:20:47;;;;;;;14.95;7.63;;;14.00;99.90;;;10.38;100.00;95808.28;6206989;23;20392;-74
2022/09/28 09:23:42;;;;;;;10.90;4.30;;;13.20;99.90;;;10.15;100.00;95812.44;6179993;23;20024;-73
2022/09/28 09:26:34;;;;;;;9.40;4.85;;;12.60;99.90;;;10.29;100.00;95804.56;6203390;23;20642;-73
2022/09/28 09:29:16;;;;;;;14.75;8.90;;;12.20;99.90;;;10.00;100.00;95807.38;6204831;23;20027;-73
2022/09/28 09:32:25;;;;;;;4.55;1.40;;;11.90;99.90;;;10.88;100.00;95794.31;6203840;23;20055;-73
2022/09/28 09:35:13;;;;;;;3.88;1.23;;;12.10;99.90;;;11.66;100.00;95792.91;6201163;23;20467;-73
2022/09/28 09:38:41;;;;;;;5.85;1.90;;;12.70;99.90;;;12.58;100.00;95791.97;6229561;23;20017;-72
2022/09/28 09:41:25;;;;;;;6.50;2.42;;;13.40;99.90;;;12.48;100.00;95795.28;6205548;23;20027;-73
2022/09/28 09:44:43;;;;;;;5.80;1.80;;;13.60;99.90;;;12.56;100.00;95795.50;6205176;23;20020;-73
2022/09/28 09:47:16;;;;;;;15.65;5.70;;;13.70;99.90;;;10.93;100.00;95809.56;6203621;23;20020;-74
2022/09/28 09:49:56;;;;;;;13.20;4.43;;;13.50;99.90;;;10.25;100.00;95813.47;6201806;23;20025;-71
2022/09/28 09:52:54;;;;;;;40.40;18.45;;;13.10;99.90;;;10.28;100.00;95813.25;6204889;23;20021;-73
2022/09/28 09:55:39;;;;;;;8.75;3.95;;;12.80;99.90;;;10.58;100.00;95818.09;6201698;23;20036;-73
2022/09/28 09:58:16;;;;;;;9.85;3.55;;;12.40;99.90;;;10.88;100.00;95809.06;6205141;23;20020;-71
2022/09/28 10:00:47;;;;;;;9.60;2.95;;;12.50;99.90;;;10.73;100.00;95815.34;6205502;23;20040;-73
2022/09/28 10:03:33;;;;;;;16.70;6.38;;;12.50;99.90;;;10.26;100.00;95823.75;6203747;23;20043;-73
2022/09/28 10:06:32;;;;;;;20.42;9.10;;;12.50;99.90;;;10.56;100.00;95821.72;6203583;23;20059;-73
2022/09/28 10:09:22;;;;;;;70.68;32.17;;;12.30;99.90;;;10.31;100.00;95826.03;6205640;23;20124;-72
2022/09/28 10:11:50;;;;;;;9.85;3.05;;;12.20;99.90;;;10.24;100.00;95827.34;6204064;23;20024;-71
2022/09/28 10:14:21;;;;;;;4.95;1.95;;;12.20;99.90;;;10.94;100.00;95811.19;6203864;23;20016;-72
2022/09/28 10:16:52;;;;;;;46.95;21.92;;;12.30;99.90;;;10.25;100.00;95831.63;6203369;23;20016;-70
2022/09/28 10:19:27;;;;;;;22.40;10.18;;;12.20;99.90;;;10.35;100.00;95826.66;6203846;23;20027;-72
2022/09/28 10:21:57;;;;;;;34.28;14.30;;;12.20;99.90;;;10.53;100.00;95825.34;6203597;23;20028;-71
2022/09/28 10:24:34;;;;;;;7.32;1.67;;;12.10;99.90;;;10.39;100.00;95830.69;6178657;23;20029;-71
2022/09/28 10:27:14;;;;;;;7.45;1.77;;;12.10;99.90;;;10.41;100.00;95829.63;6202198;23;20050;-72
2022/09/28 10:30:02;;;;;;;6.22;1.92;;;12.20;99.90;;;11.01;100.00;95833.16;6204477;23;20531;-72
2022/09/28 10:32:43;;;;;;;11.40;4.28;;;12.30;99.90;;;11.09;100.00;95827.44;6205800;23;20336;-73
2022/09/28 10:35:24;;;;;;;4.95;1.58;;;12.50;99.90;;;10.98;100.00;95825.63;6203947;23;20347;-72
2022/09/28 10:37:56;;;;;;;6.25;2.35;;;12.70;99.90;;;10.80;100.00;95826.94;6203805;23;20452;-72
2022/09/28 10:40:29;;;;;;;;;;;12.90;99.90;;;11.14;100.00;95824.50;6226041;23;20031;-74
2022/09/28 10:44:04;;;;;;;6.13;1.05;;;13.00;99.90;;;11.71;100.00;95821.97;6226832;23;19980;-74
2022/09/28 10:46:37;;;;;;;4.65;1.10;;;13.40;99.90;;;11.50;100.00;95834.78;6177359;23;20464;-73
2022/09/28 10:49:16;;;;;;;4.40;0.80;;;13.30;99.90;;;11.34;100.00;95823.06;6200534;23;20041;-72
2022/09/28 10:51:46;;;;;;;2.63;0.90;;;13.00;99.90;;;10.89;100.00;95836.66;6203387;23;20626;-74
2022/09/28 10:54:17;;;;;;;2.15;1.00;;;12.80;99.90;;;11.00;100.00;95834.13;6205495;23;20025;-73
2022/09/28 10:56:45;;;;;;;5.75;1.20;;;12.60;99.90;;;10.59;100.00;95845.69;6203097;23;20044;-73
2022/09/28 10:59:28;;;;;;;5.00;1.02;;;12.70;99.90;;;10.29;100.00;95846.06;6200606;23;20016;-73
2022/09/28 11:02:27;;;;;;;4.03;0.88;;;12.60;99.90;;;11.00;100.00;95830.72;6203493;23;20774;-73